Montchanin, Delaware
Current Conditions -  °F | °C
As of 12:51 PM on Monday 22 Dec 2014 (Local Time) from KILG Reporting Station
Overcast Overcast  
Wind Chill: 36°   Ceiling: 4100
Heat Index: 40°   Visibility: 7mi
Dew Point: 32°   Wind: 6mph
Humidity: 73%   Direction: 50°NE
Pressure: 30.24"   Gusts: NA
Location:  39.79°N, 75.59°W
Report Text: KILG 221751Z 05005KT 7SM OVC041 04/00 A3024 RMK AO2 SLP240 T00440000 10044 21044 58024
Loading
Personal Weather Stations






























Interactive Weather Map New forecast layout! Learn more

10-Day Weather Forecast

Advertisements
Track Severe Weather on mobile